Aktualne dane pomiarowe

Uwaga, wersja testowa! Automatyczne pobieranie danych za pomocą narzędzi lub skryptów to umożliwiających jest zabronione.

Dane meteo z obszaru Polski uzyskane na podstawie depesz SYNOP pobieranych co godzinę z NWS. Najedź myszką na symbol przedstawiony w tabeli, aby uzyskać informacje co do jego znaczenia. Prosimy pamiętać, że to testowa wersja strony, która jeszcze nie jest ukończona. Stworzono również jest krótki FAQ dotyczący korzystania z tej podstrony Anomalie temperatury w chwili obecnej odniesione są do okresu referencyjnego 1951-2016. Okres ten będzie później zmieniony na 1981-2010. Kliknij ikonę aby pobrać plik CSV. Kliknij ikonę aby wygenerować mapę synoptyczną dla danego terminu.

Wybierz Datę:    

        

Jelenia Góra (12500)

Dane terminowe dla wybranej stacji. Kliknij datę, aby otrzymać dane z tego terminu dla wszystkich stacji.

TemperaturaZachmurzenieWiatrCiśnienieOpadyPogoda
 Data t td wb tx tn tg rh  Nt Nl Cl Cm Ch ws wd g1 g2 wx mslp ppp ch 24h 12h t ww ww w1 w2  
2019-06-22 23:00:00 12.3 11.5 11.7--- 9550.0wx-wxwx0---01021.8 980.6 0.9---------
2019-06-22 22:00:00 12.9 10.4 11.2--- 8550.0wx-wxwx1wx--11021.4 980.3 1.1---------
2019-06-22 21:00:00 14.8 12.1 13.0--- 8450.0wx-wxwx1wx--11020.7 979.9 0.5---------
2019-06-22 20:00:00 16.2 11.6 13.2--- 7450.0wx-wxwx1wx--11020.3 979.7 0.4---------
2019-06-22 19:00:00 19.9 10.6 14.3--- 5550.0wxwxwxwxwx2wx--21019.2 979.2 -0.4---------
2019-06-22 18:00:00 21.6 11.0 15.2 23.6 19.1- 5150.0wxwxwxwxwx3wx-1031019.2 979.4 -0.7- 0.012------
2019-06-22 17:00:00 22.4 11.5 15.8--- 5050.0wxwxwxwxwx4wx--41019.0 979.3 -0.9---------
2019-06-22 16:00:00 22.8 10.6 15.5--- 4650.0wxwxwxwx5wx--51019.3 979.6 -0.9---------
2019-06-22 15:00:00 22.9 11.3 15.9--- 4840.0wxwxwxwx5wx-1051019.8 980.1 -1.2---------
2019-06-22 14:00:00 22.9 12.5 16.5--- 5240.0wxwxwxwx4wx--41019.9 980.2 -1.6---------
2019-06-22 13:00:00 23.4 12.4 16.6--- 5040.0wxwxwxwx5wx-1051020.1 980.5 -1.4---------
2019-06-22 12:00:00 22.8 13.8 17.1--- 5735.0wxwxwxwx5wx---1021.0 981.3 -0.4---------
2019-06-22 11:00:00 21.5 12.6 15.9--- 5745.0wxwxwxwx4wx---1021.7 981.8 0.3---------
2019-06-22 10:00:00 21.1 14.0 16.5--- 6440.0wxwxwxwxwx4wx--41021.9 981.9 0.3---------
2019-06-22 09:00:00 22.1 13.2 16.5--- 5740.0wxwxwxwxwx3wx--31021.5 981.7 0.1---------
2019-06-22 08:00:00 21.3 13.0 16.1--- 5940.0wxwxwxwxwx4wx--41021.4 981.5 0.1---------
2019-06-22 07:00:00 20.7 14.8 16.8--- 6940.0wxwxwxwxwx3wx--31021.6 981.6 0.6---------
2019-06-22 06:00:00 19.1 14.6 16.1 22.3 12.9 12 7535.0wxwxwxwxwx3wx--31021.8 981.6 0.8- 0.012----- 6.3
2019-06-22 05:00:00 17.7 15.5 16.1--- 8729.0wxwxwxwxwx1wx--11021.8 981.4 0.8---------
2019-06-22 04:00:00 15.7 15.1 15.2--- 9613.0wxwxwxwxwx0---01021.7 981.0 0.8---------
2019-06-22 03:00:00 14.6 14.4 14.4--- 9910.0wxwxwxwxwx2wx--21021.7 980.8 0.7---------
2019-06-22 02:00:00 13.8 13.6 13.6--- 9912.0wxwxwxwx2wx--21021.6 980.6 0.6---wx---
2019-06-22 01:00:00 13.6 13.3 13.4--- 9825.0wxwxwx0---01021.2 980.2 0.6---wx---
2019-06-22 00:00:00 15.6 14.1 14.5--- 9123.0wxwxwxwx0---01020.8 980.1 0.8- 0.06------
2019-06-21 23:00:00 15.7 14.9 15.1--- 9512.0wxwxwxwx0---01020.7 980.0 1.3---------
2019-06-21 22:00:00 16.1 14.8 15.2--- 9213.0wxwxwxwx1wx--11020.2 979.6 1.8---------
2019-06-21 21:00:00 17.2 15.4 15.9--- 8915.0wxwxwxwx1wx--11019.7 979.3 2.0---------
2019-06-21 20:00:00 17.2 14.8 15.5--- 8635.0wxwxwxwx1wx--11019.1 978.7 1.8---------
2019-06-21 19:00:00 20.8 14.4 16.6--- 6750.0wxwxwxwxwx2wx--21017.7 977.8 1.2---------
2019-06-21 18:00:00 22.3 14.2 17.1 24.6 16.8- 6050.0wxwxwxwxwx2wx--21016.9 977.3 0.9- 0.012wx-w1--
2019-06-21 17:00:00 23.5 13.4 17.2--- 5340.0wxwxwxwxwx3wx---1016.3 976.9 0.5---------
2019-06-21 16:00:00 24.2 13.4 17.5--- 5140.0wxwxwxwxwx2wx--21015.9 976.6 -0.2---------
2019-06-21 15:00:00 24.3 14.1 17.8--- 5340.0wxwxwxwxwx5wx---1015.7 976.4 -0.6---wx-w1--
2019-06-21 14:00:00 24.0 13.8 17.6--- 5340.0wxwxwxwxwx4wx--41015.8 976.4 -0.9---------
2019-06-21 13:00:00 23.1 15.2 18.0--- 6140.0wxwxwxwx3wx--31016.3 976.8 -0.5---wx---
2019-06-21 12:00:00 22.1 16.1 18.1--- 6940.0wxwxwxwx2wx--21016.6 977.0 -0.3- 0.06wx---
2019-06-21 11:00:00 21.0 15.8 17.5--- 7230.0wxwxwxwx2wx---1017.1 977.3 0.6---------
2019-06-21 10:00:00 20.4 16.0 17.4--- 7640.0wxwxwxwx2wx---1017.2 977.3 1.0---------
2019-06-21 09:00:00 19.1 16.7 17.4--- 8640.0wxwxwxwx1wx--11017.4 977.3 1.6---------
2019-06-21 08:00:00 18.4 16.0 16.7--- 8640.0wxwxwxwx2wx--21016.8 976.7 1.2---------
2019-06-21 07:00:00 17.5 16.4 16.7--- 9326.0wxwxwxwx1wx--11016.6 976.3 0.9---------
2019-06-21 06:00:00 16.8 16.0 16.2 24.6 13.1 12 9525.0wxwxwxwx1wx--11016.0 975.7 0.3 1.7 0.512wx-- 11.4
2019-06-21 05:00:00 16.0 15.4 15.5--- 9612.0wxwxwxwx1wx--11015.9 975.5 0.5---wx---
2019-06-21 04:00:00 16.1 15.3 15.5--- 9535.0wxwxwxwx1wx--11015.8 975.4 0.5---------
2019-06-21 03:00:00 15.6 15.3 15.4--- 9815.0wxwxwxwx1wx--11015.9 975.4 1.3---------
2019-06-21 02:00:00 15.5 15.0 15.1--- 9726.0wx-wx1wx--11015.5 975.0 1.2---------
2019-06-21 01:00:00 14.6 14.4 14.4--- 9910.0wx-wx1wx--11015.5 974.9 1.1---------
2019-06-21 00:00:00 13.5 13.2 13.3--- 9810.0wx-wxwx0---01014.8 974.1 0.9- 0.06------
1.8 ms

 

Print Friendly, PDF & Email